Terminal Aerodrome Forecast
Issued by NWS Pueblo, CO

Home | Current Version | Previous Version | Text Only | Print | Product List | Glossary On
Versions: 1 2 3 4 5 6 7 8 9 10 11 12 13 14 15 16 17 18 19 20 21 22 23 24 25 26 27 28
000
FTUS45 KPUB 280019 AAA
TAFALS
TAF AMD
KALS 280019Z 2800/2824 27012KT P6SM VCTS SCT070CB BKN130
     FM280200 22007KT P6SM SCT070 BKN130
     FM280600 VRB05KT P6SM BKN130
     FM282000 22015G25KT P6SM VCTS BKN100CB=

USA.gov is the U.S. government's official web portal to all federal, state and local government web resources and services.